sensor_id;sensor_type;location;lat;lon;timestamp;temperature;humidity
67273;DHT22;54190;49.770;9.250;2024-01-25T00:00:50;8.80;99.90
67273;DHT22;54190;49.770;9.250;2024-01-25T00:03:15;8.80;99.90
67273;DHT22;54190;49.770;9.250;2024-01-25T00:05:41;8.80;99.90
67273;DHT22;54190;49.770;9.250;2024-01-25T00:08:07;8.80;99.90
67273;DHT22;54190;49.770;9.250;2024-01-25T00:10:32;8.80;99.90
67273;DHT22;54190;49.770;9.250;2024-01-25T00:12:58;8.80;99.90
67273;DHT22;54190;49.770;9.250;2024-01-25T00:15:24;8.80;99.90
67273;DHT22;54190;49.770;9.250;2024-01-25T00:17:49;8.80;99.90
67273;DHT22;54190;49.770;9.250;2024-01-25T00:20:15;8.80;99.90
67273;DHT22;54190;49.770;9.250;2024-01-25T00:22:41;8.70;99.90
67273;DHT22;54190;49.770;9.250;2024-01-25T00:25:07;8.70;99.90
67273;DHT22;54190;49.770;9.250;2024-01-25T00:27:33;8.70;99.90
67273;DHT22;54190;49.770;9.250;2024-01-25T00:29:58;8.70;99.90
67273;DHT22;54190;49.770;9.250;2024-01-25T00:32:24;8.70;99.90
67273;DHT22;54190;49.770;9.250;2024-01-25T00:34:50;8.60;99.90
67273;DHT22;54190;49.770;9.250;2024-01-25T00:37:16;8.60;99.90
67273;DHT22;54190;49.770;9.250;2024-01-25T00:39:42;8.60;99.90
67273;DHT22;54190;49.770;9.250;2024-01-25T00:42:08;8.60;99.90
67273;DHT22;54190;49.770;9.250;2024-01-25T00:44:36;8.60;99.90
67273;DHT22;54190;49.770;9.250;2024-01-25T00:47:02;8.50;99.90
67273;DHT22;54190;49.770;9.250;2024-01-25T00:49:28;8.50;99.90
67273;DHT22;54190;49.770;9.250;2024-01-25T00:51:58;8.50;99.90
67273;DHT22;54190;49.770;9.250;2024-01-25T00:54:25;8.50;99.90
67273;DHT22;54190;49.770;9.250;2024-01-25T00:56:51;8.50;99.90
67273;DHT22;54190;49.770;9.250;2024-01-25T00:59:19;8.50;99.90
67273;DHT22;54190;49.770;9.250;2024-01-25T01:01:47;8.50;99.90
67273;DHT22;54190;49.770;9.250;2024-01-25T01:04:14;8.40;99.90
67273;DHT22;54190;49.770;9.250;2024-01-25T01:06:40;8.40;99.90
67273;DHT22;54190;49.770;9.250;2024-01-25T01:09:06;8.50;99.90
67273;DHT22;54190;49.770;9.250;2024-01-25T01:11:31;8.50;99.90
67273;DHT22;54190;49.770;9.250;2024-01-25T01:13:57;8.40;99.90
67273;DHT22;54190;49.770;9.250;2024-01-25T01:16:23;8.40;99.90
67273;DHT22;54190;49.770;9.250;2024-01-25T01:18:48;8.40;99.90
67273;DHT22;54190;49.770;9.250;2024-01-25T01:21:14;8.50;99.90
67273;DHT22;54190;49.770;9.250;2024-01-25T01:23:39;8.50;99.90
67273;DHT22;54190;49.770;9.250;2024-01-25T01:26:05;8.50;99.90
67273;DHT22;54190;49.770;9.250;2024-01-25T01:28:31;8.50;99.90
67273;DHT22;54190;49.770;9.250;2024-01-25T01:30:56;8.40;99.90
67273;DHT22;54190;49.770;9.250;2024-01-25T01:33:22;8.40;99.90
67273;DHT22;54190;49.770;9.250;2024-01-25T01:35:48;8.40;99.90
67273;DHT22;54190;49.770;9.250;2024-01-25T01:38:13;8.40;99.90
67273;DHT22;54190;49.770;9.250;2024-01-25T01:40:39;8.40;99.90
67273;DHT22;54190;49.770;9.250;2024-01-25T01:43:05;8.50;99.90
67273;DHT22;54190;49.770;9.250;2024-01-25T01:45:30;8.50;99.90
67273;DHT22;54190;49.770;9.250;2024-01-25T01:47:57;8.40;99.90
67273;DHT22;54190;49.770;9.250;2024-01-25T01:50:23;8.40;99.90
67273;DHT22;54190;49.770;9.250;2024-01-25T01:52:49;8.40;99.90
67273;DHT22;54190;49.770;9.250;2024-01-25T01:55:17;8.40;99.90
67273;DHT22;54190;49.770;9.250;2024-01-25T01:57:43;8.40;99.90
67273;DHT22;54190;49.770;9.250;2024-01-25T02:00:10;8.40;99.90
67273;DHT22;54190;49.770;9.250;2024-01-25T02:02:39;8.40;99.90
67273;DHT22;54190;49.770;9.250;2024-01-25T02:05:05;8.40;99.90
67273;DHT22;54190;49.770;9.250;2024-01-25T02:07:31;8.50;99.90
67273;DHT22;54190;49.770;9.250;2024-01-25T02:09:56;8.50;99.90
67273;DHT22;54190;49.770;9.250;2024-01-25T02:12:22;8.50;99.90
67273;DHT22;54190;49.770;9.250;2024-01-25T02:14:47;8.50;99.90
67273;DHT22;54190;49.770;9.250;2024-01-25T02:17:13;8.50;99.90
67273;DHT22;54190;49.770;9.250;2024-01-25T02:19:38;8.50;99.90
67273;DHT22;54190;49.770;9.250;2024-01-25T02:22:05;8.40;99.90
67273;DHT22;54190;49.770;9.250;2024-01-25T02:24:30;8.40;99.90
67273;DHT22;54190;49.770;9.250;2024-01-25T02:26:56;8.40;99.90
67273;DHT22;54190;49.770;9.250;2024-01-25T02:29:22;8.50;99.90
67273;DHT22;54190;49.770;9.250;2024-01-25T02:31:48;8.40;99.90
67273;DHT22;54190;49.770;9.250;2024-01-25T02:34:13;8.40;99.90
67273;DHT22;54190;49.770;9.250;2024-01-25T02:36:39;8.40;99.90
67273;DHT22;54190;49.770;9.250;2024-01-25T02:39:04;8.40;99.90
67273;DHT22;54190;49.770;9.250;2024-01-25T02:41:33;8.30;99.90
67273;DHT22;54190;49.770;9.250;2024-01-25T02:44:00;8.30;99.90
67273;DHT22;54190;49.770;9.250;2024-01-25T02:46:25;8.20;99.90
67273;DHT22;54190;49.770;9.250;2024-01-25T02:48:51;8.20;99.90
67273;DHT22;54190;49.770;9.250;2024-01-25T02:51:17;8.20;99.90
67273;DHT22;54190;49.770;9.250;2024-01-25T02:53:42;8.20;99.90
67273;DHT22;54190;49.770;9.250;2024-01-25T02:56:08;8.20;99.90
67273;DHT22;54190;49.770;9.250;2024-01-25T02:58:33;8.20;99.90
67273;DHT22;54190;49.770;9.250;2024-01-25T03:00:59;8.20;99.90
67273;DHT22;54190;49.770;9.250;2024-01-25T03:03:25;8.20;99.90
67273;DHT22;54190;49.770;9.250;2024-01-25T03:05:51;8.20;99.90
67273;DHT22;54190;49.770;9.250;2024-01-25T03:08:17;8.20;99.90
67273;DHT22;54190;49.770;9.250;2024-01-25T03:10:43;8.20;99.90
67273;DHT22;54190;49.770;9.250;2024-01-25T03:13:09;8.20;99.90
67273;DHT22;54190;49.770;9.250;2024-01-25T03:15:34;8.20;99.90
67273;DHT22;54190;49.770;9.250;2024-01-25T03:18:00;8.20;99.90
67273;DHT22;54190;49.770;9.250;2024-01-25T03:20:26;8.20;99.90
67273;DHT22;54190;49.770;9.250;2024-01-25T03:22:52;8.30;99.90
67273;DHT22;54190;49.770;9.250;2024-01-25T03:25:17;8.20;99.90
67273;DHT22;54190;49.770;9.250;2024-01-25T03:27:43;8.20;99.90
67273;DHT22;54190;49.770;9.250;2024-01-25T03:30:09;8.20;99.90
67273;DHT22;54190;49.770;9.250;2024-01-25T03:32:35;8.10;99.90
67273;DHT22;54190;49.770;9.250;2024-01-25T03:35:01;8.20;99.90
67273;DHT22;54190;49.770;9.250;2024-01-25T03:37:27;8.20;99.90
67273;DHT22;54190;49.770;9.250;2024-01-25T03:39:52;8.20;99.90
67273;DHT22;54190;49.770;9.250;2024-01-25T03:42:18;8.10;99.90
67273;DHT22;54190;49.770;9.250;2024-01-25T03:44:44;8.10;99.90
67273;DHT22;54190;49.770;9.250;2024-01-25T03:47:10;8.00;99.90
67273;DHT22;54190;49.770;9.250;2024-01-25T03:49:36;8.00;99.90
67273;DHT22;54190;49.770;9.250;2024-01-25T03:52:03;8.00;99.90
67273;DHT22;54190;49.770;9.250;2024-01-25T03:54:28;8.00;99.90
67273;DHT22;54190;49.770;9.250;2024-01-25T03:56:54;8.00;99.90
67273;DHT22;54190;49.770;9.250;2024-01-25T03:59:19;8.00;99.90
67273;DHT22;54190;49.770;9.250;2024-01-25T04:01:45;8.00;99.90
67273;DHT22;54190;49.770;9.250;2024-01-25T04:04:13;8.00;99.90
67273;DHT22;54190;49.770;9.250;2024-01-25T04:06:41;8.00;99.90
67273;DHT22;54190;49.770;9.250;2024-01-25T04:09:11;8.00;99.90
67273;DHT22;54190;49.770;9.250;2024-01-25T04:11:37;8.00;99.90
67273;DHT22;54190;49.770;9.250;2024-01-25T04:14:04;7.90;99.90
67273;DHT22;54190;49.770;9.250;2024-01-25T04:16:30;7.90;99.90
67273;DHT22;54190;49.770;9.250;2024-01-25T04:18:56;7.90;99.90
67273;DHT22;54190;49.770;9.250;2024-01-25T04:21:22;8.00;99.90
67273;DHT22;54190;49.770;9.250;2024-01-25T04:23:47;8.00;99.90
67273;DHT22;54190;49.770;9.250;2024-01-25T04:26:14;7.90;99.90
67273;DHT22;54190;49.770;9.250;2024-01-25T04:28:40;8.00;99.90
67273;DHT22;54190;49.770;9.250;2024-01-25T04:31:05;7.90;99.90
67273;DHT22;54190;49.770;9.250;2024-01-25T04:33:31;8.00;99.90
67273;DHT22;54190;49.770;9.250;2024-01-25T04:35:57;7.90;99.90
67273;DHT22;54190;49.770;9.250;2024-01-25T04:38:22;7.90;99.90
67273;DHT22;54190;49.770;9.250;2024-01-25T04:40:48;7.90;99.90
67273;DHT22;54190;49.770;9.250;2024-01-25T04:43:13;7.80;99.90
67273;DHT22;54190;49.770;9.250;2024-01-25T04:45:39;7.80;99.90
67273;DHT22;54190;49.770;9.250;2024-01-25T04:48:06;7.70;99.90
67273;DHT22;54190;49.770;9.250;2024-01-25T04:50:32;7.70;99.90
67273;DHT22;54190;49.770;9.250;2024-01-25T04:52:57;7.70;99.90
67273;DHT22;54190;49.770;9.250;2024-01-25T04:55:23;7.70;99.90
67273;DHT22;54190;49.770;9.250;2024-01-25T04:57:49;7.70;99.90
67273;DHT22;54190;49.770;9.250;2024-01-25T05:00:21;7.60;99.90
67273;DHT22;54190;49.770;9.250;2024-01-25T05:02:47;7.60;99.90
67273;DHT22;54190;49.770;9.250;2024-01-25T05:05:13;7.60;99.90
67273;DHT22;54190;49.770;9.250;2024-01-25T05:07:39;7.50;99.90
67273;DHT22;54190;49.770;9.250;2024-01-25T05:10:05;7.50;99.90
67273;DHT22;54190;49.770;9.250;2024-01-25T05:12:31;7.50;99.90
67273;DHT22;54190;49.770;9.250;2024-01-25T05:14:57;7.40;99.90
67273;DHT22;54190;49.770;9.250;2024-01-25T05:17:23;7.40;99.90
67273;DHT22;54190;49.770;9.250;2024-01-25T05:19:49;7.40;99.90
67273;DHT22;54190;49.770;9.250;2024-01-25T05:22:14;7.30;99.90
67273;DHT22;54190;49.770;9.250;2024-01-25T05:24:40;7.30;99.90
67273;DHT22;54190;49.770;9.250;2024-01-25T05:27:06;7.30;99.90
67273;DHT22;54190;49.770;9.250;2024-01-25T05:29:31;7.20;99.90
67273;DHT22;54190;49.770;9.250;2024-01-25T05:31:57;7.20;99.90
67273;DHT22;54190;49.770;9.250;2024-01-25T05:34:23;7.20;99.90
67273;DHT22;54190;49.770;9.250;2024-01-25T05:36:49;7.20;99.90
67273;DHT22;54190;49.770;9.250;2024-01-25T05:39:15;7.20;99.90
67273;DHT22;54190;49.770;9.250;2024-01-25T05:41:40;7.20;99.90
67273;DHT22;54190;49.770;9.250;2024-01-25T05:44:06;7.10;99.90
67273;DHT22;54190;49.770;9.250;2024-01-25T05:46:31;7.10;99.90
67273;DHT22;54190;49.770;9.250;2024-01-25T05:48:57;7.10;99.90
67273;DHT22;54190;49.770;9.250;2024-01-25T05:51:23;7.10;99.90
67273;DHT22;54190;49.770;9.250;2024-01-25T05:53:48;7.10;99.90
67273;DHT22;54190;49.770;9.250;2024-01-25T05:56:14;7.00;99.90
67273;DHT22;54190;49.770;9.250;2024-01-25T05:58:39;7.10;99.90
67273;DHT22;54190;49.770;9.250;2024-01-25T06:01:06;7.00;99.90
67273;DHT22;54190;49.770;9.250;2024-01-25T06:03:31;7.00;99.90
67273;DHT22;54190;49.770;9.250;2024-01-25T06:05:57;7.00;99.90
67273;DHT22;54190;49.770;9.250;2024-01-25T06:08:22;7.00;99.90
67273;DHT22;54190;49.770;9.250;2024-01-25T06:10:48;6.90;99.90
67273;DHT22;54190;49.770;9.250;2024-01-25T06:13:13;6.90;99.90
67273;DHT22;54190;49.770;9.250;2024-01-25T06:15:40;6.90;99.90
67273;DHT22;54190;49.770;9.250;2024-01-25T06:18:05;6.90;99.90
67273;DHT22;54190;49.770;9.250;2024-01-25T06:20:31;6.90;99.90
67273;DHT22;54190;49.770;9.250;2024-01-25T06:22:57;6.80;99.90
67273;DHT22;54190;49.770;9.250;2024-01-25T06:25:23;6.80;99.90
67273;DHT22;54190;49.770;9.250;2024-01-25T06:27:49;6.80;99.90
67273;DHT22;54190;49.770;9.250;2024-01-25T06:30:14;6.80;99.90
67273;DHT22;54190;49.770;9.250;2024-01-25T06:32:40;6.80;99.90
67273;DHT22;54190;49.770;9.250;2024-01-25T06:35:06;6.80;99.90
67273;DHT22;54190;49.770;9.250;2024-01-25T06:37:32;6.80;99.90
67273;DHT22;54190;49.770;9.250;2024-01-25T06:39:58;6.70;99.90
67273;DHT22;54190;49.770;9.250;2024-01-25T06:42:24;6.80;99.90
67273;DHT22;54190;49.770;9.250;2024-01-25T06:44:49;6.70;99.90
67273;DHT22;54190;49.770;9.250;2024-01-25T06:47:15;6.70;99.90
67273;DHT22;54190;49.770;9.250;2024-01-25T06:49:41;6.70;99.90
67273;DHT22;54190;49.770;9.250;2024-01-25T06:52:06;6.70;99.90
67273;DHT22;54190;49.770;9.250;2024-01-25T06:54:32;6.70;99.90
67273;DHT22;54190;49.770;9.250;2024-01-25T06:56:58;6.60;99.90
67273;DHT22;54190;49.770;9.250;2024-01-25T06:59:23;6.60;99.90
67273;DHT22;54190;49.770;9.250;2024-01-25T07:01:49;6.60;99.90
67273;DHT22;54190;49.770;9.250;2024-01-25T07:04:15;6.60;99.90
67273;DHT22;54190;49.770;9.250;2024-01-25T07:06:41;6.60;99.90
67273;DHT22;54190;49.770;9.250;2024-01-25T07:09:06;6.50;99.90
67273;DHT22;54190;49.770;9.250;2024-01-25T07:11:32;6.60;99.90
67273;DHT22;54190;49.770;9.250;2024-01-25T07:13:58;6.60;99.90
67273;DHT22;54190;49.770;9.250;2024-01-25T07:16:23;6.60;99.90
67273;DHT22;54190;49.770;9.250;2024-01-25T07:18:49;6.60;99.90
67273;DHT22;54190;49.770;9.250;2024-01-25T07:21:15;6.60;99.90
67273;DHT22;54190;49.770;9.250;2024-01-25T07:23:40;6.60;99.90
67273;DHT22;54190;49.770;9.250;2024-01-25T07:26:06;6.60;99.90
67273;DHT22;54190;49.770;9.250;2024-01-25T07:28:32;6.60;99.90
67273;DHT22;54190;49.770;9.250;2024-01-25T07:30:57;6.60;99.90
67273;DHT22;54190;49.770;9.250;2024-01-25T07:33:23;6.60;99.90
67273;DHT22;54190;49.770;9.250;2024-01-25T07:35:49;6.60;99.90
67273;DHT22;54190;49.770;9.250;2024-01-25T07:38:15;6.60;99.90
67273;DHT22;54190;49.770;9.250;2024-01-25T07:40:41;6.70;99.90
67273;DHT22;54190;49.770;9.250;2024-01-25T07:43:07;6.50;99.90
67273;DHT22;54190;49.770;9.250;2024-01-25T07:45:32;6.50;99.90
67273;DHT22;54190;49.770;9.250;2024-01-25T07:47:58;6.40;99.90
67273;DHT22;54190;49.770;9.250;2024-01-25T07:50:24;6.30;99.90
67273;DHT22;54190;49.770;9.250;2024-01-25T07:52:50;6.40;99.90
67273;DHT22;54190;49.770;9.250;2024-01-25T07:55:16;6.30;99.90
67273;DHT22;54190;49.770;9.250;2024-01-25T07:57:41;6.20;99.90
67273;DHT22;54190;49.770;9.250;2024-01-25T08:00:08;6.20;99.90
67273;DHT22;54190;49.770;9.250;2024-01-25T08:02:35;6.20;99.90
67273;DHT22;54190;49.770;9.250;2024-01-25T08:05:01;6.10;99.90
67273;DHT22;54190;49.770;9.250;2024-01-25T08:07:28;6.10;99.90
67273;DHT22;54190;49.770;9.250;2024-01-25T08:09:53;6.10;99.90
67273;DHT22;54190;49.770;9.250;2024-01-25T08:12:22;6.20;99.90
67273;DHT22;54190;49.770;9.250;2024-01-25T08:14:48;6.20;99.90
67273;DHT22;54190;49.770;9.250;2024-01-25T08:17:14;6.20;99.90
67273;DHT22;54190;49.770;9.250;2024-01-25T08:19:39;6.30;99.90
67273;DHT22;54190;49.770;9.250;2024-01-25T08:22:05;6.30;99.90
67273;DHT22;54190;49.770;9.250;2024-01-25T08:24:31;6.30;99.90
67273;DHT22;54190;49.770;9.250;2024-01-25T08:26:57;6.30;99.90
67273;DHT22;54190;49.770;9.250;2024-01-25T08:29:22;6.30;99.90
67273;DHT22;54190;49.770;9.250;2024-01-25T08:31:48;6.40;99.90
67273;DHT22;54190;49.770;9.250;2024-01-25T08:34:14;6.40;99.90
67273;DHT22;54190;49.770;9.250;2024-01-25T08:36:40;6.40;99.90
67273;DHT22;54190;49.770;9.250;2024-01-25T08:39:05;6.50;99.90
67273;DHT22;54190;49.770;9.250;2024-01-25T08:41:31;6.50;99.90
67273;DHT22;54190;49.770;9.250;2024-01-25T08:43:57;6.60;99.90
67273;DHT22;54190;49.770;9.250;2024-01-25T08:46:23;6.60;99.90
67273;DHT22;54190;49.770;9.250;2024-01-25T08:48:48;6.70;99.90
67273;DHT22;54190;49.770;9.250;2024-01-25T08:51:14;6.80;99.90
67273;DHT22;54190;49.770;9.250;2024-01-25T08:53:39;6.80;99.90
67273;DHT22;54190;49.770;9.250;2024-01-25T08:56:05;6.90;99.90
67273;DHT22;54190;49.770;9.250;2024-01-25T08:58:31;6.90;99.90
67273;DHT22;54190;49.770;9.250;2024-01-25T09:00:57;6.90;99.90
67273;DHT22;54190;49.770;9.250;2024-01-25T09:03:23;6.90;99.90
67273;DHT22;54190;49.770;9.250;2024-01-25T09:05:48;6.90;99.90
67273;DHT22;54190;49.770;9.250;2024-01-25T09:08:14;6.90;99.90
67273;DHT22;54190;49.770;9.250;2024-01-25T09:10:41;7.10;99.90
67273;DHT22;54190;49.770;9.250;2024-01-25T09:13:07;7.10;99.90
67273;DHT22;54190;49.770;9.250;2024-01-25T09:15:33;7.10;99.90
67273;DHT22;54190;49.770;9.250;2024-01-25T09:17:59;7.10;99.90
67273;DHT22;54190;49.770;9.250;2024-01-25T09:20:25;7.10;99.90
67273;DHT22;54190;49.770;9.250;2024-01-25T09:22:51;7.10;99.90
67273;DHT22;54190;49.770;9.250;2024-01-25T09:25:19;7.20;99.90
67273;DHT22;54190;49.770;9.250;2024-01-25T09:27:45;7.20;99.90
67273;DHT22;54190;49.770;9.250;2024-01-25T09:30:11;7.30;99.90
67273;DHT22;54190;49.770;9.250;2024-01-25T09:32:36;7.30;99.90
67273;DHT22;54190;49.770;9.250;2024-01-25T09:35:02;7.40;99.90
67273;DHT22;54190;49.770;9.250;2024-01-25T09:37:28;7.40;99.90
67273;DHT22;54190;49.770;9.250;2024-01-25T09:39:53;7.50;99.90
67273;DHT22;54190;49.770;9.250;2024-01-25T09:42:19;7.60;99.90
67273;DHT22;54190;49.770;9.250;2024-01-25T09:44:45;7.80;99.90
67273;DHT22;54190;49.770;9.250;2024-01-25T09:47:11;7.70;99.90
67273;DHT22;54190;49.770;9.250;2024-01-25T09:49:37;7.70;99.90
67273;DHT22;54190;49.770;9.250;2024-01-25T09:52:03;7.80;99.90
67273;DHT22;54190;49.770;9.250;2024-01-25T09:54:35;7.80;99.90
67273;DHT22;54190;49.770;9.250;2024-01-25T09:57:16;7.80;99.90
67273;DHT22;54190;49.770;9.250;2024-01-25T09:59:43;7.90;99.90
67273;DHT22;54190;49.770;9.250;2024-01-25T10:02:10;8.00;99.90
67273;DHT22;54190;49.770;9.250;2024-01-25T10:04:36;8.00;99.90
67273;DHT22;54190;49.770;9.250;2024-01-25T10:07:01;8.00;99.90
67273;DHT22;54190;49.770;9.250;2024-01-25T10:09:27;8.10;99.90
67273;DHT22;54190;49.770;9.250;2024-01-25T10:11:53;8.20;99.90
67273;DHT22;54190;49.770;9.250;2024-01-25T10:14:18;8.10;99.90
67273;DHT22;54190;49.770;9.250;2024-01-25T10:16:45;8.10;99.90
67273;DHT22;54190;49.770;9.250;2024-01-25T10:19:12;8.20;99.90
67273;DHT22;54190;49.770;9.250;2024-01-25T10:21:37;8.20;99.90
67273;DHT22;54190;49.770;9.250;2024-01-25T10:24:05;8.20;99.90
67273;DHT22;54190;49.770;9.250;2024-01-25T10:26:31;8.30;99.90
67273;DHT22;54190;49.770;9.250;2024-01-25T10:28:57;8.30;99.90
67273;DHT22;54190;49.770;9.250;2024-01-25T10:31:24;8.30;99.90
67273;DHT22;54190;49.770;9.250;2024-01-25T10:33:53;8.30;99.90
67273;DHT22;54190;49.770;9.250;2024-01-25T10:36:21;8.30;99.90
67273;DHT22;54190;49.770;9.250;2024-01-25T10:38:48;8.30;99.90
67273;DHT22;54190;49.770;9.250;2024-01-25T10:41:14;8.40;99.90
67273;DHT22;54190;49.770;9.250;2024-01-25T10:43:40;8.50;99.90
67273;DHT22;54190;49.770;9.250;2024-01-25T10:46:06;8.60;99.90
67273;DHT22;54190;49.770;9.250;2024-01-25T10:48:32;8.60;99.90
67273;DHT22;54190;49.770;9.250;2024-01-25T10:50:58;8.60;99.90
67273;DHT22;54190;49.770;9.250;2024-01-25T10:53:30;8.60;99.90
67273;DHT22;54190;49.770;9.250;2024-01-25T10:55:56;8.70;99.90
67273;DHT22;54190;49.770;9.250;2024-01-25T10:58:22;8.70;99.90
67273;DHT22;54190;49.770;9.250;2024-01-25T11:01:11;8.70;99.90
67273;DHT22;54190;49.770;9.250;2024-01-25T11:03:39;8.70;99.90
67273;DHT22;54190;49.770;9.250;2024-01-25T11:06:11;8.80;99.90
67273;DHT22;54190;49.770;9.250;2024-01-25T11:08:38;8.70;99.90
67273;DHT22;54190;49.770;9.250;2024-01-25T11:11:08;8.70;99.90
67273;DHT22;54190;49.770;9.250;2024-01-25T11:13:34;8.80;99.90
67273;DHT22;54190;49.770;9.250;2024-01-25T11:16:14;8.80;99.90
67273;DHT22;54190;49.770;9.250;2024-01-25T11:18:54;8.90;99.90
67273;DHT22;54190;49.770;9.250;2024-01-25T11:21:25;8.90;99.90
67273;DHT22;54190;49.770;9.250;2024-01-25T11:23:59;8.90;99.90
67273;DHT22;54190;49.770;9.250;2024-01-25T11:26:25;9.00;99.90
67273;DHT22;54190;49.770;9.250;2024-01-25T11:28:51;9.00;99.90
67273;DHT22;54190;49.770;9.250;2024-01-25T11:31:17;9.00;99.90
67273;DHT22;54190;49.770;9.250;2024-01-25T11:33:44;9.00;99.90
67273;DHT22;54190;49.770;9.250;2024-01-25T11:36:10;9.00;99.90
67273;DHT22;54190;49.770;9.250;2024-01-25T11:38:38;9.20;99.90
67273;DHT22;54190;49.770;9.250;2024-01-25T11:41:04;9.30;99.90
67273;DHT22;54190;49.770;9.250;2024-01-25T11:43:29;9.40;99.90
67273;DHT22;54190;49.770;9.250;2024-01-25T11:45:55;9.40;99.90
67273;DHT22;54190;49.770;9.250;2024-01-25T11:48:21;9.50;99.90
67273;DHT22;54190;49.770;9.250;2024-01-25T11:50:46;9.60;99.90
67273;DHT22;54190;49.770;9.250;2024-01-25T11:53:12;9.60;99.90
67273;DHT22;54190;49.770;9.250;2024-01-25T11:55:38;9.60;99.90
67273;DHT22;54190;49.770;9.250;2024-01-25T11:58:04;9.60;99.90
67273;DHT22;54190;49.770;9.250;2024-01-25T12:00:29;9.60;99.90
67273;DHT22;54190;49.770;9.250;2024-01-25T12:02:55;9.60;99.90
67273;DHT22;54190;49.770;9.250;2024-01-25T12:05:22;9.50;99.90
67273;DHT22;54190;49.770;9.250;2024-01-25T12:07:47;9.50;99.90
67273;DHT22;54190;49.770;9.250;2024-01-25T12:10:17;9.40;99.90
67273;DHT22;54190;49.770;9.250;2024-01-25T12:12:45;9.40;99.90
67273;DHT22;54190;49.770;9.250;2024-01-25T12:15:11;9.40;99.90
67273;DHT22;54190;49.770;9.250;2024-01-25T12:17:36;9.40;99.90
67273;DHT22;54190;49.770;9.250;2024-01-25T12:20:04;9.30;99.90
67273;DHT22;54190;49.770;9.250;2024-01-25T12:22:36;9.20;99.90
67273;DHT22;54190;49.770;9.250;2024-01-25T12:25:02;9.20;99.90
67273;DHT22;54190;49.770;9.250;2024-01-25T12:27:31;9.30;99.90
67273;DHT22;54190;49.770;9.250;2024-01-25T12:29:58;9.30;99.90
67273;DHT22;54190;49.770;9.250;2024-01-25T12:32:23;9.40;99.90
67273;DHT22;54190;49.770;9.250;2024-01-25T12:34:56;9.40;99.90
67273;DHT22;54190;49.770;9.250;2024-01-25T12:37:22;9.30;99.90
67273;DHT22;54190;49.770;9.250;2024-01-25T12:39:48;9.30;99.90
67273;DHT22;54190;49.770;9.250;2024-01-25T12:42:14;9.40;99.90
67273;DHT22;54190;49.770;9.250;2024-01-25T12:44:39;9.30;99.90
67273;DHT22;54190;49.770;9.250;2024-01-25T12:47:05;9.30;99.90
67273;DHT22;54190;49.770;9.250;2024-01-25T12:49:35;9.30;99.90
67273;DHT22;54190;49.770;9.250;2024-01-25T12:52:01;9.20;99.90
67273;DHT22;54190;49.770;9.250;2024-01-25T12:54:26;9.20;99.90
67273;DHT22;54190;49.770;9.250;2024-01-25T12:56:54;9.20;99.90
67273;DHT22;54190;49.770;9.250;2024-01-25T12:59:19;9.20;99.90
67273;DHT22;54190;49.770;9.250;2024-01-25T13:01:45;9.20;99.90
67273;DHT22;54190;49.770;9.250;2024-01-25T13:04:11;9.20;99.90
67273;DHT22;54190;49.770;9.250;2024-01-25T13:06:37;9.20;99.90
67273;DHT22;54190;49.770;9.250;2024-01-25T13:09:02;9.20;99.90
67273;DHT22;54190;49.770;9.250;2024-01-25T13:11:29;9.30;99.90
67273;DHT22;54190;49.770;9.250;2024-01-25T13:13:55;9.40;99.90
67273;DHT22;54190;49.770;9.250;2024-01-25T13:16:20;9.40;99.90
67273;DHT22;54190;49.770;9.250;2024-01-25T13:18:46;9.50;99.90
67273;DHT22;54190;49.770;9.250;2024-01-25T13:21:12;9.50;99.90
67273;DHT22;54190;49.770;9.250;2024-01-25T13:23:37;9.50;99.90
67273;DHT22;54190;49.770;9.250;2024-01-25T13:26:03;9.50;99.90
67273;DHT22;54190;49.770;9.250;2024-01-25T13:28:28;9.60;99.90
67273;DHT22;54190;49.770;9.250;2024-01-25T13:30:56;9.60;99.90
67273;DHT22;54190;49.770;9.250;2024-01-25T13:33:22;9.70;99.90
67273;DHT22;54190;49.770;9.250;2024-01-25T13:35:48;9.80;99.90
67273;DHT22;54190;49.770;9.250;2024-01-25T13:38:14;9.80;99.90
67273;DHT22;54190;49.770;9.250;2024-01-25T13:40:41;9.90;99.90
67273;DHT22;54190;49.770;9.250;2024-01-25T13:43:07;9.90;99.90
67273;DHT22;54190;49.770;9.250;2024-01-25T13:45:33;9.90;99.90
67273;DHT22;54190;49.770;9.250;2024-01-25T13:47:58;10.00;99.90
67273;DHT22;54190;49.770;9.250;2024-01-25T13:50:24;10.00;99.90
67273;DHT22;54190;49.770;9.250;2024-01-25T13:52:50;10.00;99.90
67273;DHT22;54190;49.770;9.250;2024-01-25T13:55:15;10.00;99.90
67273;DHT22;54190;49.770;9.250;2024-01-25T13:57:41;9.90;99.90
67273;DHT22;54190;49.770;9.250;2024-01-25T14:00:07;9.90;99.90
67273;DHT22;54190;49.770;9.250;2024-01-25T14:02:33;10.00;99.90
67273;DHT22;54190;49.770;9.250;2024-01-25T14:04:59;10.00;99.90
67273;DHT22;54190;49.770;9.250;2024-01-25T14:07:25;9.90;99.90
67273;DHT22;54190;49.770;9.250;2024-01-25T14:09:50;9.90;99.90
67273;DHT22;54190;49.770;9.250;2024-01-25T14:12:17;9.90;99.90
67273;DHT22;54190;49.770;9.250;2024-01-25T14:14:43;9.90;99.90
67273;DHT22;54190;49.770;9.250;2024-01-25T14:17:09;10.00;99.90
67273;DHT22;54190;49.770;9.250;2024-01-25T14:19:34;10.10;99.90
67273;DHT22;54190;49.770;9.250;2024-01-25T14:22:00;10.20;99.90
67273;DHT22;54190;49.770;9.250;2024-01-25T14:24:26;10.20;99.90
67273;DHT22;54190;49.770;9.250;2024-01-25T14:26:52;10.30;99.90
67273;DHT22;54190;49.770;9.250;2024-01-25T14:29:17;10.20;99.90
67273;DHT22;54190;49.770;9.250;2024-01-25T14:31:43;10.10;99.90
67273;DHT22;54190;49.770;9.250;2024-01-25T14:34:09;10.00;99.90
67273;DHT22;54190;49.770;9.250;2024-01-25T14:36:35;10.00;99.90
67273;DHT22;54190;49.770;9.250;2024-01-25T14:39:00;10.10;99.90
67273;DHT22;54190;49.770;9.250;2024-01-25T14:41:27;10.10;99.90
67273;DHT22;54190;49.770;9.250;2024-01-25T14:43:53;10.10;99.90
67273;DHT22;54190;49.770;9.250;2024-01-25T14:46:18;10.10;99.90
67273;DHT22;54190;49.770;9.250;2024-01-25T14:48:44;10.10;99.90
67273;DHT22;54190;49.770;9.250;2024-01-25T14:51:10;10.10;99.90
67273;DHT22;54190;49.770;9.250;2024-01-25T14:53:35;10.10;99.90
67273;DHT22;54190;49.770;9.250;2024-01-25T14:56:01;10.10;99.90
67273;DHT22;54190;49.770;9.250;2024-01-25T14:58:27;10.00;99.90
67273;DHT22;54190;49.770;9.250;2024-01-25T15:00:52;10.00;99.90
67273;DHT22;54190;49.770;9.250;2024-01-25T15:03:19;10.10;99.90
67273;DHT22;54190;49.770;9.250;2024-01-25T15:05:45;10.10;99.90
67273;DHT22;54190;49.770;9.250;2024-01-25T15:08:11;10.10;99.90
67273;DHT22;54190;49.770;9.250;2024-01-25T15:10:37;10.10;99.90
67273;DHT22;54190;49.770;9.250;2024-01-25T15:13:02;10.10;99.90
67273;DHT22;54190;49.770;9.250;2024-01-25T15:15:28;10.00;99.90
67273;DHT22;54190;49.770;9.250;2024-01-25T15:17:54;10.00;99.90
67273;DHT22;54190;49.770;9.250;2024-01-25T15:20:21;9.90;99.90
67273;DHT22;54190;49.770;9.250;2024-01-25T15:22:47;9.90;99.90
67273;DHT22;54190;49.770;9.250;2024-01-25T15:25:13;9.90;99.90
67273;DHT22;54190;49.770;9.250;2024-01-25T15:27:38;9.90;99.90
67273;DHT22;54190;49.770;9.250;2024-01-25T15:30:04;9.80;99.90
67273;DHT22;54190;49.770;9.250;2024-01-25T15:32:38;9.80;99.90
67273;DHT22;54190;49.770;9.250;2024-01-25T15:35:04;9.80;99.90
67273;DHT22;54190;49.770;9.250;2024-01-25T15:37:30;9.70;99.90